KESC/ESC METAR and TAF weather

Enter ICAO airport designator
Station Type Date Time Source
KESC METAR 2019/12/10 05:56 UTC NOAA

KESC 100556Z AUTO 29011KT 10SM CLR M10/M13 A2970 RMK AO2 SLP070 60000 T11001128 11044 21100 51040 FZRANO


Station Type Date Time Source
KESC Decoded METAR 2019/12/10 05:56 UTC NOAA

Escanaba, MI, United States (KESC) 45-45N 087-02W 187M
Dec 10, 2019 - 12:56 AM EST / 2019.12.10 0556 UTC
Wind: from the WNW (290 degrees) at 13 MPH (11 KT):0
Visibility: 10 mile(s):0
Sky conditions: clear
Temperature: 14.0 F (-10.0 C)
Windchill: 0 F (-18 C):1
Dew Point: 9.0 F (-12.8 C)
Relative Humidity: 79%
Pressure (altimeter): 29.7 in. Hg (1005 hPa)
Pressure tendency: 0.12 inches (4.0 hPa) higher than three hours ago
ob: KESC 100556Z AUTO 29011KT 10SM CLR M10/M13 A2970 RMK AO2 SLP070 60000 T11001128 11044 21100 51040 FZRANO
cycle: 6

Station Type Date Time Source
KESC TAF UTC NOAA

Error!

Example: see airport list